Hood, California
Current Conditions -  °F | °C
As of 9:53 AM on Friday 28 Nov 2014 (Local Time) from KSAC Reporting Station
Haze Haze  
Wind Chill: 47°   Ceiling: 200
Heat Index: 47°   Visibility: 1.2mi
Dew Point: 46°   Wind: 3mph
Humidity: 97%   Direction: 220°SW
Pressure: 30.04"   Gusts: NA
Location:  38.37°N, 121.52°W
Report Text: KSAC 281753Z 22003KT 1 1/4SM BR OVC002 08/08 A3004 RMK AO2 SLP171 T00830078 10083 20028 53009
Loading
Personal Weather Stations






























Interactive Weather Map New forecast layout! Learn more

10-Day Weather Forecast

Advertisements
Track Severe Weather on mobile